createdAt,value
2023-03-25T00:00:19.081Z,99850.25
2023-03-25T00:02:49.462Z,99841.50
2023-03-25T00:05:19.757Z,99838.84
2023-03-25T00:07:50.636Z,99845.84
2023-03-25T00:10:18.666Z,99842.34
2023-03-25T00:12:46.018Z,99844.97
2023-03-25T00:15:13.526Z,99849.34
2023-03-25T00:17:40.796Z,99842.31
2023-03-25T00:20:10.217Z,99841.41
2023-03-25T00:22:40.984Z,99846.66
2023-03-25T00:25:20.384Z,99836.16
2023-03-25T00:27:48.742Z,99832.66
2023-03-25T00:30:18.050Z,99845.75
2023-03-25T00:32:49.983Z,99846.66
2023-03-25T00:35:21.153Z,99847.53
2023-03-25T00:37:57.450Z,99842.28
2023-03-25T00:40:25.980Z,99841.41
2023-03-25T00:42:53.178Z,99837.91
2023-03-25T00:45:20.456Z,99844.91
2023-03-25T00:47:47.699Z,99830.91
2023-03-25T00:50:15.358Z,99833.53
2023-03-25T00:52:42.693Z,99834.41
2023-03-25T00:55:10.566Z,99836.16
2023-03-25T00:57:37.774Z,99833.59
2023-03-25T01:00:08.687Z,99838.00
2023-03-25T01:02:36.365Z,99835.41
2023-03-25T01:05:04.452Z,99840.72
2023-03-25T01:07:32.693Z,99832.88
2023-03-25T01:10:07.195Z,99831.16
2023-03-25T01:12:34.714Z,99833.78
2023-03-25T01:15:03.638Z,99821.53
2023-03-25T01:17:31.511Z,99825.03
2023-03-25T01:19:59.021Z,99823.28
2023-03-25T01:22:26.290Z,99827.66
2023-03-25T01:24:53.533Z,99831.16
2023-03-25T01:27:20.844Z,99833.78
2023-03-25T01:29:48.076Z,99839.94
2023-03-25T01:32:15.434Z,99825.06
2023-03-25T01:34:42.961Z,99830.31
2023-03-25T01:37:10.297Z,99829.47
2023-03-25T01:39:37.804Z,99823.31
2023-03-25T01:42:05.973Z,99832.97
2023-03-25T01:44:34.296Z,99832.09
2023-03-25T01:47:05.344Z,99825.13
2023-03-25T01:49:38.889Z,99821.63
2023-03-25T01:52:12.816Z,99826.00
2023-03-25T01:54:41.866Z,99829.50
2023-03-25T01:57:13.203Z,99824.25
2023-03-25T01:59:41.603Z,99829.53
2023-03-25T02:02:10.535Z,99819.91
2023-03-25T02:04:59.162Z,99817.31
2023-03-25T02:07:33.109Z,99819.06
2023-03-25T02:10:05.783Z,99813.81
2023-03-25T02:12:33.444Z,99806.84
2023-03-25T02:15:03.841Z,99812.09
2023-03-25T02:18:16.223Z,99804.22
2023-03-25T02:20:55.654Z,99807.72
2023-03-25T02:23:58.031Z,99805.09
2023-03-25T02:27:05.300Z,99804.22
2023-03-25T02:29:59.183Z,99810.38
2023-03-25T02:32:52.924Z,99804.25
2023-03-25T02:35:50.081Z,99807.78
2023-03-25T02:38:31.617Z,99805.16
2023-03-25T02:41:18.212Z,99805.16
2023-03-25T02:44:02.163Z,99805.16
2023-03-25T02:46:33.646Z,99807.78
2023-03-25T02:49:10.814Z,99807.78
2023-03-25T02:51:46.234Z,99797.28
2023-03-25T02:54:16.762Z,99807.78
2023-03-25T02:56:47.665Z,99795.56
2023-03-25T02:59:17.731Z,99800.78
2023-03-25T03:01:50.481Z,99797.28
2023-03-25T03:04:19.060Z,99794.69
2023-03-25T03:06:46.322Z,99798.16
2023-03-25T03:09:23.045Z,99799.03
2023-03-25T03:12:31.811Z,99792.06
2023-03-25T03:15:16.318Z,99794.66
2023-03-25T03:18:09.900Z,99790.31
2023-03-25T03:20:43.254Z,99794.69
2023-03-25T03:23:28.385Z,99794.66
2023-03-25T03:26:30.001Z,99791.16
2023-03-25T03:29:00.955Z,99787.66
2023-03-25T03:32:05.595Z,99792.91
2023-03-25T03:34:45.237Z,99792.91
2023-03-25T03:37:22.192Z,99791.13
2023-03-25T03:39:52.030Z,99787.66
2023-03-25T03:42:29.791Z,99791.16
2023-03-25T03:45:03.377Z,99785.03
2023-03-25T03:47:36.676Z,99795.50
2023-03-25T03:50:14.341Z,99794.63
2023-03-25T03:53:04.494Z,99785.91
2023-03-25T03:55:43.712Z,99790.25
2023-03-25T03:58:30.270Z,99794.63
2023-03-25T04:01:11.711Z,99789.38
2023-03-25T04:04:07.662Z,99799.88
2023-03-25T04:06:42.155Z,99792.00
2023-03-25T04:09:34.697Z,99792.88
2023-03-25T04:12:27.317Z,99790.25
2023-03-25T04:15:03.817Z,99781.50
2023-03-25T04:17:33.134Z,99799.00
2023-03-25T04:20:02.006Z,99792.03
2023-03-25T04:22:29.611Z,99792.91
2023-03-25T04:25:02.507Z,99793.78
2023-03-25T04:27:32.786Z,99798.16
2023-03-25T04:30:04.088Z,99799.03
2023-03-25T04:32:31.404Z,99803.41
2023-03-25T04:34:58.751Z,99802.53
2023-03-25T04:37:27.812Z,99798.16
2023-03-25T04:39:56.247Z,99800.81
2023-03-25T04:42:25.834Z,99801.66
2023-03-25T04:44:53.089Z,99800.81
2023-03-25T04:47:25.345Z,99800.81
2023-03-25T04:49:52.662Z,99796.44
2023-03-25T04:52:19.862Z,99788.59
2023-03-25T04:54:47.182Z,99790.31
2023-03-25T04:57:15.390Z,99795.56
2023-03-25T04:59:42.804Z,99792.06
2023-03-25T05:02:13.612Z,99786.81
2023-03-25T05:04:47.903Z,99794.69
2023-03-25T05:07:16.707Z,99796.44
2023-03-25T05:09:44.135Z,99792.94
2023-03-25T05:12:11.650Z,99783.34
2023-03-25T05:14:39.010Z,99795.56
2023-03-25T05:17:06.153Z,99786.84
2023-03-25T05:19:35.279Z,99784.22
2023-03-25T05:22:04.737Z,99791.22
2023-03-25T05:24:32.092Z,99792.06
2023-03-25T05:27:05.449Z,99792.09
2023-03-25T05:29:34.123Z,99785.09
2023-03-25T05:32:05.535Z,99790.34
2023-03-25T05:34:33.488Z,99787.72
2023-03-25T05:37:02.779Z,99796.47
2023-03-25T05:39:29.970Z,99790.34
2023-03-25T05:42:03.379Z,99796.47
2023-03-25T05:44:30.611Z,99806.09
2023-03-25T05:47:02.787Z,99794.69
2023-03-25T05:49:30.032Z,99807.81
2023-03-25T05:51:57.255Z,99792.97
2023-03-25T05:54:28.616Z,99797.31
2023-03-25T05:56:56.116Z,99790.34
2023-03-25T05:59:23.475Z,99799.94
2023-03-25T06:01:50.652Z,99809.59
2023-03-25T06:04:17.891Z,99808.69
2023-03-25T06:06:45.116Z,99806.94
2023-03-25T06:09:12.359Z,99806.06
2023-03-25T06:11:39.582Z,99806.06
2023-03-25T06:14:07.641Z,99809.56
2023-03-25T06:16:35.706Z,99806.94
2023-03-25T06:19:03.787Z,99805.19
2023-03-25T06:21:34.695Z,99799.97
2023-03-25T06:24:06.032Z,99799.97
2023-03-25T06:26:33.330Z,99795.56
2023-03-25T06:29:05.580Z,99797.31
2023-03-25T06:31:33.929Z,99803.41
2023-03-25T06:34:03.591Z,99801.69
2023-03-25T06:36:31.526Z,99805.19
2023-03-25T06:38:58.838Z,99796.41
2023-03-25T06:41:28.734Z,99808.63
2023-03-25T06:44:25.047Z,99806.88
2023-03-25T06:47:30.822Z,99799.88
2023-03-25T06:49:58.220Z,99800.75
2023-03-25T06:52:25.588Z,99793.75
2023-03-25T06:54:52.820Z,99806.88
2023-03-25T06:57:19.996Z,99808.59
2023-03-25T06:59:48.357Z,99817.34
2023-03-25T07:02:15.801Z,99810.41
2023-03-25T07:04:42.990Z,99810.41
2023-03-25T07:07:10.517Z,99792.97
2023-03-25T07:09:37.789Z,99805.19
2023-03-25T07:12:06.990Z,99808.69
2023-03-25T07:14:36.174Z,99811.31
2023-03-25T07:17:03.473Z,99812.22
2023-03-25T07:19:31.038Z,99808.72
2023-03-25T07:21:58.345Z,99801.69
2023-03-25T07:24:25.726Z,99805.16
2023-03-25T07:26:52.912Z,99808.66
2023-03-25T07:29:23.614Z,99804.25
2023-03-25T07:31:51.019Z,99806.00
2023-03-25T07:34:18.266Z,99811.22
2023-03-25T07:36:45.646Z,99812.09
2023-03-25T07:39:15.569Z,99799.75
2023-03-25T07:41:43.190Z,99813.72
2023-03-25T07:44:21.444Z,99811.00
2023-03-25T07:46:50.198Z,99798.69
2023-03-25T07:49:17.722Z,99813.66
2023-03-25T07:51:45.766Z,99829.47
2023-03-25T07:54:13.004Z,99834.78
2023-03-25T07:56:40.408Z,99834.84
2023-03-25T07:59:07.781Z,99839.28
2023-03-25T08:01:35.582Z,99834.03
2023-03-25T08:04:04.537Z,99831.44
2023-03-25T08:06:32.224Z,99826.19
2023-03-25T08:08:59.467Z,99828.81
2023-03-25T08:11:26.687Z,99825.31
2023-03-25T08:13:53.854Z,99839.28
2023-03-25T08:16:21.141Z,99838.44
2023-03-25T08:18:48.313Z,99838.41
2023-03-25T08:21:17.326Z,99843.66
2023-03-25T08:23:44.818Z,99842.78
2023-03-25T08:26:11.964Z,99834.03
2023-03-25T08:28:39.252Z,99838.41
2023-03-25T08:31:08.467Z,99844.50
2023-03-25T08:33:39.645Z,99836.59
2023-03-25T08:36:10.663Z,99838.28
2023-03-25T08:38:38.010Z,99833.00
2023-03-25T08:41:05.264Z,99827.75
2023-03-25T08:43:32.406Z,99833.03
2023-03-25T08:45:59.729Z,99828.66
2023-03-25T08:48:27.056Z,99833.03
2023-03-25T08:50:54.287Z,99833.94
2023-03-25T08:53:21.506Z,99835.66
2023-03-25T08:55:53.452Z,99833.03
2023-03-25T08:58:22.767Z,99833.03
2023-03-25T09:00:54.372Z,99826.94
2023-03-25T09:03:23.318Z,99833.91
2023-03-25T09:05:51.121Z,99840.06
2023-03-25T09:08:18.632Z,99836.56
2023-03-25T09:10:45.917Z,99839.16
2023-03-25T09:13:13.122Z,99846.97
2023-03-25T09:15:40.498Z,99846.97
2023-03-25T09:18:08.332Z,99845.19
2023-03-25T09:20:35.794Z,99848.66
2023-03-25T09:23:03.476Z,99845.91
2023-03-25T09:25:30.773Z,99839.69
2023-03-25T09:27:58.016Z,99836.03
2023-03-25T09:30:25.687Z,99838.53
2023-03-25T09:32:53.279Z,99844.59
2023-03-25T09:35:20.692Z,99843.59
2023-03-25T09:37:52.021Z,99831.28
2023-03-25T09:40:21.999Z,99840.03
2023-03-25T09:43:08.246Z,99854.88
2023-03-25T09:45:42.344Z,99850.38
2023-03-25T09:48:38.281Z,99843.38
2023-03-25T09:51:10.897Z,99846.00
2023-03-25T09:54:24.711Z,99850.38
2023-03-25T09:56:53.246Z,99853.13
2023-03-25T09:59:23.598Z,99850.56
2023-03-25T10:02:26.822Z,99861.16
2023-03-25T10:05:16.081Z,99858.59
2023-03-25T10:07:56.408Z,99861.16
2023-03-25T10:10:32.910Z,99848.06
2023-03-25T10:13:03.160Z,99852.47
2023-03-25T10:15:43.855Z,99855.06
2023-03-25T10:18:29.634Z,99862.69
2023-03-25T10:21:13.522Z,99855.44
2023-03-25T10:24:15.786Z,99856.94
2023-03-25T10:26:49.112Z,99864.78
2023-03-25T10:29:21.970Z,99877.22
2023-03-25T10:31:54.722Z,99881.78
2023-03-25T10:34:46.767Z,99875.78
2023-03-25T10:37:21.626Z,99881.97
2023-03-25T10:39:49.967Z,99877.63
2023-03-25T10:42:32.034Z,99879.44
2023-03-25T10:44:59.244Z,99879.50
2023-03-25T10:47:38.744Z,99867.22
2023-03-25T10:50:06.978Z,99875.16
2023-03-25T10:52:34.560Z,99879.56
2023-03-25T10:55:02.261Z,99879.44
2023-03-25T10:57:31.726Z,99879.28
2023-03-25T11:00:02.186Z,99888.00
2023-03-25T11:02:31.371Z,99876.56
2023-03-25T11:05:07.813Z,99884.47
2023-03-25T11:07:41.702Z,99874.75
2023-03-25T11:10:17.918Z,99887.00
2023-03-25T11:12:46.737Z,99879.13
2023-03-25T11:15:35.536Z,99884.44
2023-03-25T11:18:12.466Z,99878.28
2023-03-25T11:20:46.122Z,99884.31
2023-03-25T11:23:28.073Z,99880.72
2023-03-25T11:26:04.009Z,99882.41
2023-03-25T11:28:45.004Z,99885.00
2023-03-25T11:31:26.351Z,99888.38
2023-03-25T11:34:09.113Z,99884.97
2023-03-25T11:36:40.405Z,99881.50
2023-03-25T11:39:23.671Z,99874.44
2023-03-25T11:41:52.107Z,99879.63
2023-03-25T11:44:29.825Z,99876.13
2023-03-25T11:47:04.460Z,99875.22
2023-03-25T11:49:37.586Z,99864.66
2023-03-25T11:52:09.509Z,99867.28
2023-03-25T11:54:37.647Z,99868.06
2023-03-25T11:57:11.184Z,99863.66
2023-03-25T11:59:49.798Z,99875.88
2023-03-25T12:02:38.378Z,99864.25
2023-03-25T12:05:08.663Z,99864.94
2023-03-25T12:08:15.112Z,99864.00
2023-03-25T12:10:51.591Z,99842.78
2023-03-25T12:13:37.538Z,99871.56
2023-03-25T12:16:40.709Z,99849.47
2023-03-25T12:19:23.067Z,99858.25
2023-03-25T12:21:56.408Z,99852.22
2023-03-25T12:25:01.484Z,99843.50
2023-03-25T12:28:21.791Z,99843.63
2023-03-25T12:31:09.047Z,99856.16
2023-03-25T12:34:03.881Z,99850.38
2023-03-25T12:36:38.861Z,99834.53
2023-03-25T12:39:39.628Z,99838.94
2023-03-25T12:42:10.022Z,99825.69
2023-03-25T12:44:40.507Z,99835.38
2023-03-25T12:47:23.572Z,99835.47
2023-03-25T12:50:11.720Z,99834.66
2023-03-25T12:53:01.622Z,99847.09
2023-03-25T12:55:28.945Z,99832.31
2023-03-25T12:57:59.211Z,99835.94
2023-03-25T13:00:54.827Z,99819.34
2023-03-25T13:04:07.312Z,99833.41
2023-03-25T13:06:46.512Z,99818.47
2023-03-25T13:09:38.026Z,99835.09
2023-03-25T13:12:33.654Z,99826.38
2023-03-25T13:15:21.902Z,99826.41
2023-03-25T13:18:09.456Z,99844.97
2023-03-25T13:20:46.664Z,99842.50
2023-03-25T13:23:17.837Z,99848.78
2023-03-25T13:25:54.318Z,99838.31
2023-03-25T13:28:26.269Z,99849.84
2023-03-25T13:30:55.434Z,99835.00
2023-03-25T13:33:31.411Z,99861.47
2023-03-25T13:36:32.225Z,99856.31
2023-03-25T13:39:06.621Z,99851.22
2023-03-25T13:41:44.417Z,99859.13
2023-03-25T13:44:19.983Z,99864.41
2023-03-25T13:46:52.711Z,99859.22
2023-03-25T13:49:43.698Z,99849.59
2023-03-25T13:52:14.321Z,99848.75
2023-03-25T13:54:56.511Z,99851.38
2023-03-25T13:57:26.813Z,99846.13
2023-03-25T14:00:28.949Z,99852.19
2023-03-25T14:02:56.699Z,99849.56
2023-03-25T14:05:36.170Z,99849.59
2023-03-25T14:08:13.550Z,99855.72
2023-03-25T14:10:54.042Z,99855.72
2023-03-25T14:13:30.328Z,99850.50
2023-03-25T14:16:10.312Z,99852.28
2023-03-25T14:18:52.614Z,99860.19
2023-03-25T14:21:41.453Z,99869.81
2023-03-25T14:24:17.677Z,99866.31
2023-03-25T14:27:00.432Z,99854.09
2023-03-25T14:30:00.811Z,99860.22
2023-03-25T14:32:40.331Z,99855.00
2023-03-25T14:35:38.650Z,99854.09
2023-03-25T14:38:06.071Z,99831.31
2023-03-25T14:40:55.483Z,99845.28
2023-03-25T14:43:40.426Z,99851.38
2023-03-25T14:46:10.697Z,99833.84
2023-03-25T14:48:49.101Z,99843.50
2023-03-25T14:51:30.787Z,99834.72
2023-03-25T14:54:05.766Z,99833.81
2023-03-25T14:56:52.323Z,99837.34
2023-03-25T14:59:25.306Z,99834.72
2023-03-25T15:01:53.478Z,99848.72
2023-03-25T15:04:30.012Z,99854.84
2023-03-25T15:06:59.572Z,99867.13
2023-03-25T15:09:29.903Z,99857.47
2023-03-25T15:12:03.932Z,99858.38
2023-03-25T15:14:38.953Z,99861.03
2023-03-25T15:17:11.214Z,99870.66
2023-03-25T15:20:12.138Z,99866.28
2023-03-25T15:22:39.329Z,99870.69
2023-03-25T15:25:19.986Z,99879.41
2023-03-25T15:28:05.788Z,99884.66
2023-03-25T15:30:42.020Z,99889.03
2023-03-25T15:33:24.654Z,99884.66
2023-03-25T15:35:56.331Z,99885.53
2023-03-25T15:38:48.477Z,99889.91
2023-03-25T15:41:15.937Z,99879.41
2023-03-25T15:43:54.025Z,99879.41
2023-03-25T15:46:46.514Z,99884.66
2023-03-25T15:49:32.013Z,99889.91
2023-03-25T15:52:12.172Z,99889.91
2023-03-25T15:54:52.206Z,99920.53
2023-03-25T15:57:19.535Z,99909.16
2023-03-25T16:00:13.448Z,99917.91
2023-03-25T16:02:59.646Z,99917.03
2023-03-25T16:05:27.873Z,99925.78
2023-03-25T16:07:59.130Z,99928.38
2023-03-25T16:10:36.475Z,99941.50
2023-03-25T16:13:24.160Z,99934.53
2023-03-25T16:15:55.236Z,99943.28
2023-03-25T16:18:24.238Z,99943.28
2023-03-25T16:21:00.964Z,99937.16
2023-03-25T16:23:30.781Z,99947.63
2023-03-25T16:25:58.062Z,99944.16
2023-03-25T16:28:33.815Z,99958.16
2023-03-25T16:31:03.042Z,99957.28
2023-03-25T16:33:37.159Z,99952.91
2023-03-25T16:36:31.244Z,99951.16
2023-03-25T16:38:58.637Z,99962.50
2023-03-25T16:41:26.094Z,99979.13
2023-03-25T16:43:54.926Z,99986.13
2023-03-25T16:46:23.539Z,99983.53
2023-03-25T16:48:54.180Z,99989.63
2023-03-25T16:51:25.570Z,100002.75
2023-03-25T16:53:56.010Z,100001.88
2023-03-25T16:56:27.720Z,100001.88
2023-03-25T16:59:05.617Z,100001.00
2023-03-25T17:01:42.732Z,100015.00
2023-03-25T17:04:22.751Z,100008.88
2023-03-25T17:06:53.372Z,100008.88
2023-03-25T17:09:35.252Z,100022.88
2023-03-25T17:12:08.699Z,100028.97
2023-03-25T17:14:42.911Z,100029.88
2023-03-25T17:17:17.808Z,100036.88
2023-03-25T17:19:48.274Z,100026.38
2023-03-25T17:22:30.022Z,100043.84
2023-03-25T17:24:59.450Z,100049.06
2023-03-25T17:27:38.733Z,100055.22
2023-03-25T17:30:41.792Z,100063.94
2023-03-25T17:33:31.555Z,100075.31
2023-03-25T17:35:59.219Z,100091.91
2023-03-25T17:38:28.556Z,100088.41
2023-03-25T17:41:07.539Z,100092.78
2023-03-25T17:43:42.639Z,100083.16
2023-03-25T17:46:10.862Z,100105.88
2023-03-25T17:48:38.208Z,100103.25
2023-03-25T17:51:05.734Z,100100.63
2023-03-25T17:53:33.134Z,100120.75
2023-03-25T17:56:03.515Z,100115.50
2023-03-25T17:58:31.117Z,100126.84
2023-03-25T18:00:59.352Z,100132.09
2023-03-25T18:03:28.272Z,100142.59
2023-03-25T18:05:55.794Z,100144.34
2023-03-25T18:08:25.174Z,100152.19
2023-03-25T18:10:54.261Z,100155.66
2023-03-25T18:13:24.793Z,100161.78
2023-03-25T18:15:53.644Z,100161.81
2023-03-25T18:18:24.873Z,100172.28
2023-03-25T18:20:56.043Z,100172.28
2023-03-25T18:23:26.929Z,100174.91
2023-03-25T18:25:54.271Z,100167.94
2023-03-25T18:28:21.866Z,100179.25
2023-03-25T18:30:59.561Z,100171.41
2023-03-25T18:33:28.755Z,100174.03
2023-03-25T18:35:59.473Z,100184.50
2023-03-25T18:38:27.860Z,100187.13
2023-03-25T18:40:56.738Z,100188.88
2023-03-25T18:43:24.097Z,100196.72
2023-03-25T18:45:51.827Z,100204.56
2023-03-25T18:48:21.490Z,100214.19
2023-03-25T18:50:54.804Z,100214.16
2023-03-25T18:53:27.469Z,100209.78
2023-03-25T18:56:00.843Z,100218.50
2023-03-25T18:58:31.282Z,100229.00
2023-03-25T19:01:03.375Z,100223.72
2023-03-25T19:03:31.830Z,100244.69
2023-03-25T19:06:00.613Z,100244.69
2023-03-25T19:08:28.756Z,100237.69
2023-03-25T19:11:04.566Z,100252.56
2023-03-25T19:13:40.026Z,100249.94
2023-03-25T19:16:10.962Z,100256.91
2023-03-25T19:18:38.234Z,100263.88
2023-03-25T19:21:07.300Z,100255.16
2023-03-25T19:23:35.470Z,100263.00
2023-03-25T19:26:03.893Z,100256.00
2023-03-25T19:28:31.146Z,100264.72
2023-03-25T19:31:03.272Z,100243.75
2023-03-25T19:33:31.478Z,100263.88
2023-03-25T19:36:02.343Z,100268.22
2023-03-25T19:38:33.212Z,100276.09
2023-03-25T19:41:09.292Z,100271.75
2023-03-25T19:43:36.767Z,100270.88
2023-03-25T19:46:05.644Z,100270.00
2023-03-25T19:48:34.061Z,100283.13
2023-03-25T19:51:04.103Z,100274.34
2023-03-25T19:53:31.621Z,100289.22
2023-03-25T19:56:04.728Z,100281.38
2023-03-25T19:58:32.681Z,100283.13
2023-03-25T20:01:00.015Z,100291.88
2023-03-25T20:03:31.384Z,100295.34
2023-03-25T20:06:03.638Z,100299.75
2023-03-25T20:08:31.962Z,100305.84
2023-03-25T20:10:59.494Z,100302.34
2023-03-25T20:13:27.025Z,100299.72
2023-03-25T20:15:54.735Z,100306.69
2023-03-25T20:18:22.243Z,100301.41
2023-03-25T20:20:49.486Z,100290.94
2023-03-25T20:23:16.939Z,100304.00
2023-03-25T20:25:44.488Z,100297.91
2023-03-25T20:28:11.829Z,100313.63
2023-03-25T20:30:39.855Z,100307.47
2023-03-25T20:33:07.165Z,100306.56
2023-03-25T20:35:34.861Z,100316.22
2023-03-25T20:38:03.348Z,100310.06
2023-03-25T20:40:41.579Z,100313.56
2023-03-25T20:43:14.040Z,100319.66
2023-03-25T20:45:42.959Z,100316.09
2023-03-25T20:48:10.825Z,100309.06
2023-03-25T20:50:38.666Z,100321.28
2023-03-25T20:53:06.334Z,100320.34
2023-03-25T20:55:34.016Z,100331.66
2023-03-25T20:58:04.163Z,100335.97
2023-03-25T21:00:31.976Z,100334.16
2023-03-25T21:02:59.399Z,100345.47
2023-03-25T21:05:28.048Z,100346.34
2023-03-25T21:07:55.533Z,100348.09
2023-03-25T21:10:22.781Z,100350.72
2023-03-25T21:12:50.173Z,100353.34
2023-03-25T21:15:18.092Z,100354.25
2023-03-25T21:17:45.633Z,100352.47
2023-03-25T21:20:13.034Z,100358.59
2023-03-25T21:22:45.321Z,100351.63
2023-03-25T21:25:14.791Z,100359.53
2023-03-25T21:27:45.358Z,100359.53
2023-03-25T21:30:14.132Z,100355.16
2023-03-25T21:32:42.233Z,100353.44
2023-03-25T21:35:09.918Z,100364.81
2023-03-25T21:37:38.883Z,100371.81
2023-03-25T21:40:10.289Z,100361.34
2023-03-25T21:42:38.828Z,100370.09
2023-03-25T21:45:07.898Z,100363.13
2023-03-25T21:47:36.450Z,100369.25
2023-03-25T21:50:07.661Z,100369.28
2023-03-25T21:52:35.972Z,100374.53
2023-03-25T21:55:03.925Z,100379.78
2023-03-25T21:57:31.195Z,100378.06
2023-03-25T21:59:58.585Z,100381.56
2023-03-25T22:02:29.155Z,100378.94
2023-03-25T22:04:56.360Z,100374.56
2023-03-25T22:07:23.738Z,100382.44
2023-03-25T22:09:52.495Z,100389.44
2023-03-25T22:12:19.740Z,100394.69
2023-03-25T22:14:47.622Z,100392.94
2023-03-25T22:17:15.160Z,100392.06
2023-03-25T22:19:42.516Z,100403.38
2023-03-25T22:22:12.110Z,100391.19
2023-03-25T22:24:39.491Z,100412.16
2023-03-25T22:27:06.881Z,100405.16
2023-03-25T22:29:34.348Z,100401.66
2023-03-25T22:32:07.861Z,100409.50
2023-03-25T22:34:35.485Z,100412.13
2023-03-25T22:37:04.439Z,100426.97
2023-03-25T22:39:31.728Z,100426.09
2023-03-25T22:41:59.193Z,100428.69
2023-03-25T22:44:26.623Z,100439.16
2023-03-25T22:46:53.851Z,100447.88
2023-03-25T22:49:21.862Z,100454.88
2023-03-25T22:51:51.142Z,100446.97
2023-03-25T22:54:18.611Z,100457.41
2023-03-25T22:56:45.992Z,100457.41
2023-03-25T22:59:14.601Z,100460.91
2023-03-25T23:01:43.340Z,100464.38
2023-03-25T23:04:10.892Z,100470.47
2023-03-25T23:06:38.670Z,100478.34
2023-03-25T23:09:08.600Z,100478.34
2023-03-25T23:11:36.924Z,100479.19
2023-03-25T23:14:13.355Z,100479.16
2023-03-25T23:16:41.815Z,100487.88
2023-03-25T23:19:10.278Z,100486.97
2023-03-25T23:21:40.814Z,100494.75
2023-03-25T23:24:08.576Z,100485.16
2023-03-25T23:26:38.925Z,100490.34
2023-03-25T23:29:10.426Z,100493.84
2023-03-25T23:31:43.081Z,100496.44
2023-03-25T23:34:14.544Z,100498.19
2023-03-25T23:36:42.460Z,100493.78
2023-03-25T23:39:13.618Z,100494.63
2023-03-25T23:41:41.366Z,100498.09
2023-03-25T23:44:08.613Z,100500.72
2023-03-25T23:46:36.212Z,100505.09
2023-03-25T23:49:05.799Z,100499.81
2023-03-25T23:51:36.765Z,100505.06
2023-03-25T23:54:06.007Z,100504.19
2023-03-25T23:56:33.632Z,100506.78
2023-03-25T23:59:03.676Z,100516.41
